sensor_id;sensor_type;location;lat;lon;timestamp;temperature;humidity
2729;DHT22;1372;47.956;7.830;2022-09-17T00:01:30;11.60;99.90
2729;DHT22;1372;47.956;7.830;2022-09-17T00:04:00;11.60;99.90
2729;DHT22;1372;47.956;7.830;2022-09-17T00:06:34;11.60;99.90
2729;DHT22;1372;47.956;7.830;2022-09-17T00:09:05;11.60;99.90
2729;DHT22;1372;47.956;7.830;2022-09-17T00:11:38;11.60;99.90
2729;DHT22;1372;47.956;7.830;2022-09-17T00:14:13;11.40;99.90
2729;DHT22;1372;47.956;7.830;2022-09-17T00:16:46;11.50;99.90
2729;DHT22;1372;47.956;7.830;2022-09-17T00:19:36;11.50;99.90
2729;DHT22;1372;47.956;7.830;2022-09-17T00:22:04;11.50;99.90
2729;DHT22;1372;47.956;7.830;2022-09-17T00:24:33;11.60;99.90
2729;DHT22;1372;47.956;7.830;2022-09-17T00:27:02;11.60;99.90
2729;DHT22;1372;47.956;7.830;2022-09-17T00:29:30;11.70;99.90
2729;DHT22;1372;47.956;7.830;2022-09-17T00:32:01;11.60;99.90
2729;DHT22;1372;47.956;7.830;2022-09-17T00:34:29;11.60;99.90
2729;DHT22;1372;47.956;7.830;2022-09-17T00:36:58;11.70;99.90
2729;DHT22;1372;47.956;7.830;2022-09-17T00:39:27;11.70;99.90
2729;DHT22;1372;47.956;7.830;2022-09-17T00:41:55;11.60;99.90
2729;DHT22;1372;47.956;7.830;2022-09-17T00:44:43;11.60;99.90
2729;DHT22;1372;47.956;7.830;2022-09-17T00:47:21;11.50;99.90
2729;DHT22;1372;47.956;7.830;2022-09-17T00:49:55;11.70;99.90
2729;DHT22;1372;47.956;7.830;2022-09-17T00:52:48;11.70;99.90
2729;DHT22;1372;47.956;7.830;2022-09-17T00:55:23;11.60;99.90
2729;DHT22;1372;47.956;7.830;2022-09-17T00:57:56;11.60;99.90
2729;DHT22;1372;47.956;7.830;2022-09-17T01:00:27;11.70;99.90
2729;DHT22;1372;47.956;7.830;2022-09-17T01:03:00;11.70;99.90
2729;DHT22;1372;47.956;7.830;2022-09-17T01:05:53;11.60;99.90
2729;DHT22;1372;47.956;7.830;2022-09-17T01:08:31;11.50;99.90
2729;DHT22;1372;47.956;7.830;2022-09-17T01:11:18;11.50;99.90
2729;DHT22;1372;47.956;7.830;2022-09-17T01:14:13;11.40;99.90
2729;DHT22;1372;47.956;7.830;2022-09-17T01:16:52;11.40;99.90
2729;DHT22;1372;47.956;7.830;2022-09-17T01:23:04;11.40;99.90
2729;DHT22;1372;47.956;7.830;2022-09-17T01:25:53;11.30;99.90
2729;DHT22;1372;47.956;7.830;2022-09-17T01:28:40;11.30;99.90
2729;DHT22;1372;47.956;7.830;2022-09-17T01:31:29;11.40;99.90
2729;DHT22;1372;47.956;7.830;2022-09-17T01:34:09;11.40;99.90
2729;DHT22;1372;47.956;7.830;2022-09-17T01:36:48;11.40;99.90
2729;DHT22;1372;47.956;7.830;2022-09-17T01:39:30;11.40;99.90
2729;DHT22;1372;47.956;7.830;2022-09-17T01:42:08;11.30;99.90
2729;DHT22;1372;47.956;7.830;2022-09-17T01:44:49;11.40;99.90
2729;DHT22;1372;47.956;7.830;2022-09-17T01:47:25;11.40;99.90
2729;DHT22;1372;47.956;7.830;2022-09-17T01:50:02;11.40;99.90
2729;DHT22;1372;47.956;7.830;2022-09-17T01:52:36;11.40;99.90
2729;DHT22;1372;47.956;7.830;2022-09-17T01:55:10;11.40;99.90
2729;DHT22;1372;47.956;7.830;2022-09-17T01:57:46;11.30;99.90
2729;DHT22;1372;47.956;7.830;2022-09-17T02:00:17;11.30;99.90
2729;DHT22;1372;47.956;7.830;2022-09-17T02:02:52;11.30;99.90
2729;DHT22;1372;47.956;7.830;2022-09-17T02:05:27;11.40;99.90
2729;DHT22;1372;47.956;7.830;2022-09-17T02:08:02;11.30;99.90
2729;DHT22;1372;47.956;7.830;2022-09-17T02:10:36;11.30;99.90
2729;DHT22;1372;47.956;7.830;2022-09-17T02:13:12;11.40;99.90
2729;DHT22;1372;47.956;7.830;2022-09-17T02:15:47;11.50;99.90
2729;DHT22;1372;47.956;7.830;2022-09-17T02:18:24;11.40;99.90
2729;DHT22;1372;47.956;7.830;2022-09-17T02:21:02;11.30;99.90
2729;DHT22;1372;47.956;7.830;2022-09-17T02:24:01;11.30;99.90
2729;DHT22;1372;47.956;7.830;2022-09-17T02:26:34;11.40;99.90
2729;DHT22;1372;47.956;7.830;2022-09-17T02:29:08;11.40;99.90
2729;DHT22;1372;47.956;7.830;2022-09-17T02:31:41;11.40;99.90
2729;DHT22;1372;47.956;7.830;2022-09-17T02:34:11;11.40;99.90
2729;DHT22;1372;47.956;7.830;2022-09-17T02:36:40;11.40;99.90
2729;DHT22;1372;47.956;7.830;2022-09-17T02:39:08;11.50;99.90
2729;DHT22;1372;47.956;7.830;2022-09-17T02:41:44;11.40;99.90
2729;DHT22;1372;47.956;7.830;2022-09-17T02:44:23;11.40;99.90
2729;DHT22;1372;47.956;7.830;2022-09-17T02:50:13;11.40;99.90
2729;DHT22;1372;47.956;7.830;2022-09-17T02:52:59;11.40;99.90
2729;DHT22;1372;47.956;7.830;2022-09-17T02:56:08;11.50;99.90
2729;DHT22;1372;47.956;7.830;2022-09-17T02:58:44;11.50;99.90
2729;DHT22;1372;47.956;7.830;2022-09-17T03:01:20;11.40;99.90
2729;DHT22;1372;47.956;7.830;2022-09-17T03:03:52;11.30;99.90
2729;DHT22;1372;47.956;7.830;2022-09-17T03:06:23;11.40;99.90
2729;DHT22;1372;47.956;7.830;2022-09-17T03:08:52;11.20;99.90
2729;DHT22;1372;47.956;7.830;2022-09-17T03:11:23;11.20;99.90
2729;DHT22;1372;47.956;7.830;2022-09-17T03:13:52;11.10;99.90
2729;DHT22;1372;47.956;7.830;2022-09-17T03:16:21;11.10;99.90
2729;DHT22;1372;47.956;7.830;2022-09-17T03:19:09;11.20;99.90
2729;DHT22;1372;47.956;7.830;2022-09-17T03:21:39;11.20;99.90
2729;DHT22;1372;47.956;7.830;2022-09-17T03:24:07;11.30;99.90
2729;DHT22;1372;47.956;7.830;2022-09-17T03:26:38;11.40;99.90
2729;DHT22;1372;47.956;7.830;2022-09-17T03:29:06;11.50;99.90
2729;DHT22;1372;47.956;7.830;2022-09-17T03:31:35;11.50;99.90
2729;DHT22;1372;47.956;7.830;2022-09-17T03:34:06;11.30;99.90
2729;DHT22;1372;47.956;7.830;2022-09-17T03:36:38;11.30;99.90
2729;DHT22;1372;47.956;7.830;2022-09-17T03:39:09;11.30;99.90
2729;DHT22;1372;47.956;7.830;2022-09-17T03:41:57;11.30;99.90
2729;DHT22;1372;47.956;7.830;2022-09-17T03:44:26;11.20;99.90
2729;DHT22;1372;47.956;7.830;2022-09-17T03:47:14;11.20;99.90
2729;DHT22;1372;47.956;7.830;2022-09-17T03:49:42;11.20;99.90
2729;DHT22;1372;47.956;7.830;2022-09-17T03:52:12;11.20;99.90
2729;DHT22;1372;47.956;7.830;2022-09-17T03:55:01;11.30;99.90
2729;DHT22;1372;47.956;7.830;2022-09-17T03:57:32;11.20;99.90
2729;DHT22;1372;47.956;7.830;2022-09-17T04:00:00;11.20;99.90
2729;DHT22;1372;47.956;7.830;2022-09-17T04:02:29;11.20;99.90
2729;DHT22;1372;47.956;7.830;2022-09-17T04:04:58;11.10;99.90
2729;DHT22;1372;47.956;7.830;2022-09-17T04:07:28;11.10;99.90
2729;DHT22;1372;47.956;7.830;2022-09-17T04:09:58;11.20;99.90
2729;DHT22;1372;47.956;7.830;2022-09-17T04:12:29;11.30;99.90
2729;DHT22;1372;47.956;7.830;2022-09-17T04:14:57;11.30;99.90
2729;DHT22;1372;47.956;7.830;2022-09-17T04:17:26;11.30;99.90
2729;DHT22;1372;47.956;7.830;2022-09-17T04:20:15;11.30;99.90
2729;DHT22;1372;47.956;7.830;2022-09-17T04:22:45;11.30;99.90
2729;DHT22;1372;47.956;7.830;2022-09-17T04:25:13;11.30;99.90
2729;DHT22;1372;47.956;7.830;2022-09-17T04:27:42;11.20;99.90
2729;DHT22;1372;47.956;7.830;2022-09-17T04:30:11;11.30;99.90
2729;DHT22;1372;47.956;7.830;2022-09-17T04:32:42;11.30;99.90
2729;DHT22;1372;47.956;7.830;2022-09-17T04:35:11;11.30;99.90
2729;DHT22;1372;47.956;7.830;2022-09-17T04:37:40;11.20;99.90
2729;DHT22;1372;47.956;7.830;2022-09-17T04:40:13;11.10;99.90
2729;DHT22;1372;47.956;7.830;2022-09-17T04:42:41;11.00;99.90
2729;DHT22;1372;47.956;7.830;2022-09-17T04:45:10;11.00;99.90
2729;DHT22;1372;47.956;7.830;2022-09-17T04:47:39;11.00;99.90
2729;DHT22;1372;47.956;7.830;2022-09-17T04:50:11;11.00;99.90
2729;DHT22;1372;47.956;7.830;2022-09-17T04:52:59;11.00;99.90
2729;DHT22;1372;47.956;7.830;2022-09-17T04:55:29;10.90;99.90
2729;DHT22;1372;47.956;7.830;2022-09-17T04:57:59;11.00;99.90
2729;DHT22;1372;47.956;7.830;2022-09-17T05:00:28;10.90;99.90
2729;DHT22;1372;47.956;7.830;2022-09-17T05:02:57;11.00;99.90
2729;DHT22;1372;47.956;7.830;2022-09-17T05:05:26;11.00;99.90
2729;DHT22;1372;47.956;7.830;2022-09-17T05:07:54;11.00;99.90
2729;DHT22;1372;47.956;7.830;2022-09-17T05:10:23;11.00;99.90
2729;DHT22;1372;47.956;7.830;2022-09-17T05:12:54;11.00;99.90
2729;DHT22;1372;47.956;7.830;2022-09-17T05:15:43;10.90;99.90
2729;DHT22;1372;47.956;7.830;2022-09-17T05:18:12;11.00;99.90
2729;DHT22;1372;47.956;7.830;2022-09-17T05:20:43;11.00;99.90
2729;DHT22;1372;47.956;7.830;2022-09-17T05:23:31;10.90;99.90
2729;DHT22;1372;47.956;7.830;2022-09-17T05:26:01;10.90;99.90
2729;DHT22;1372;47.956;7.830;2022-09-17T05:28:31;10.90;99.90
2729;DHT22;1372;47.956;7.830;2022-09-17T05:31:00;11.00;99.90
2729;DHT22;1372;47.956;7.830;2022-09-17T05:33:30;11.00;99.90
2729;DHT22;1372;47.956;7.830;2022-09-17T05:35:59;11.00;99.90
2729;DHT22;1372;47.956;7.830;2022-09-17T05:38:28;11.00;99.90
2729;DHT22;1372;47.956;7.830;2022-09-17T05:40:57;11.00;99.90
2729;DHT22;1372;47.956;7.830;2022-09-17T05:43:25;11.10;99.90
2729;DHT22;1372;47.956;7.830;2022-09-17T05:45:57;11.10;99.90
2729;DHT22;1372;47.956;7.830;2022-09-17T05:48:48;11.10;99.90
2729;DHT22;1372;47.956;7.830;2022-09-17T05:51:16;11.10;99.90
2729;DHT22;1372;47.956;7.830;2022-09-17T05:53:45;11.00;99.90
2729;DHT22;1372;47.956;7.830;2022-09-17T05:56:14;11.00;99.90
2729;DHT22;1372;47.956;7.830;2022-09-17T05:58:45;11.00;99.90
2729;DHT22;1372;47.956;7.830;2022-09-17T06:01:17;11.00;99.90
2729;DHT22;1372;47.956;7.830;2022-09-17T06:03:46;11.10;99.90
2729;DHT22;1372;47.956;7.830;2022-09-17T06:06:14;11.10;99.90
2729;DHT22;1372;47.956;7.830;2022-09-17T06:08:43;11.20;99.90
2729;DHT22;1372;47.956;7.830;2022-09-17T06:11:11;11.20;99.90
2729;DHT22;1372;47.956;7.830;2022-09-17T06:14:00;11.20;99.90
2729;DHT22;1372;47.956;7.830;2022-09-17T06:16:30;11.30;99.90
2729;DHT22;1372;47.956;7.830;2022-09-17T06:19:01;11.30;99.90
2729;DHT22;1372;47.956;7.830;2022-09-17T06:21:49;11.30;99.90
2729;DHT22;1372;47.956;7.830;2022-09-17T06:24:18;11.30;99.90
2729;DHT22;1372;47.956;7.830;2022-09-17T06:26:47;11.30;99.90
2729;DHT22;1372;47.956;7.830;2022-09-17T06:29:35;11.30;99.90
2729;DHT22;1372;47.956;7.830;2022-09-17T06:32:07;11.40;99.90
2729;DHT22;1372;47.956;7.830;2022-09-17T06:34:37;11.30;99.90
2729;DHT22;1372;47.956;7.830;2022-09-17T06:37:08;11.40;99.90
2729;DHT22;1372;47.956;7.830;2022-09-17T06:39:37;11.40;99.90
2729;DHT22;1372;47.956;7.830;2022-09-17T06:42:08;11.40;99.90
2729;DHT22;1372;47.956;7.830;2022-09-17T06:44:39;11.40;99.90
2729;DHT22;1372;47.956;7.830;2022-09-17T06:47:09;11.40;99.90
2729;DHT22;1372;47.956;7.830;2022-09-17T06:49:38;11.40;99.90
2729;DHT22;1372;47.956;7.830;2022-09-17T06:52:26;11.40;99.90
2729;DHT22;1372;47.956;7.830;2022-09-17T06:54:56;11.50;99.90
2729;DHT22;1372;47.956;7.830;2022-09-17T06:57:25;11.50;99.90
2729;DHT22;1372;47.956;7.830;2022-09-17T06:59:53;11.50;99.90
2729;DHT22;1372;47.956;7.830;2022-09-17T07:02:23;11.50;99.90
2729;DHT22;1372;47.956;7.830;2022-09-17T07:04:52;11.50;99.90
2729;DHT22;1372;47.956;7.830;2022-09-17T07:07:21;11.60;99.90
2729;DHT22;1372;47.956;7.830;2022-09-17T07:09:50;11.70;99.90
2729;DHT22;1372;47.956;7.830;2022-09-17T07:12:21;11.70;99.90
2729;DHT22;1372;47.956;7.830;2022-09-17T07:15:10;11.70;99.90
2729;DHT22;1372;47.956;7.830;2022-09-17T07:17:43;11.80;99.90
2729;DHT22;1372;47.956;7.830;2022-09-17T07:20:32;11.70;99.90
2729;DHT22;1372;47.956;7.830;2022-09-17T07:23:02;11.70;99.90
2729;DHT22;1372;47.956;7.830;2022-09-17T07:25:31;11.80;99.90
2729;DHT22;1372;47.956;7.830;2022-09-17T07:28:02;11.80;99.90
2729;DHT22;1372;47.956;7.830;2022-09-17T07:30:31;11.90;99.90
2729;DHT22;1372;47.956;7.830;2022-09-17T07:33:03;11.80;99.90
2729;DHT22;1372;47.956;7.830;2022-09-17T07:35:32;11.90;99.90
2729;DHT22;1372;47.956;7.830;2022-09-17T07:38:01;11.90;99.90
2729;DHT22;1372;47.956;7.830;2022-09-17T07:40:30;11.90;99.90
2729;DHT22;1372;47.956;7.830;2022-09-17T07:42:59;11.90;99.90
2729;DHT22;1372;47.956;7.830;2022-09-17T07:45:28;11.90;99.90
2729;DHT22;1372;47.956;7.830;2022-09-17T07:48:18;12.00;99.90
2729;DHT22;1372;47.956;7.830;2022-09-17T07:50:47;12.10;99.90
2729;DHT22;1372;47.956;7.830;2022-09-17T07:53:16;12.10;99.90
2729;DHT22;1372;47.956;7.830;2022-09-17T07:55:50;12.20;99.90
2729;DHT22;1372;47.956;7.830;2022-09-17T07:58:20;12.30;99.90
2729;DHT22;1372;47.956;7.830;2022-09-17T08:00:50;12.40;99.90
2729;DHT22;1372;47.956;7.830;2022-09-17T08:03:20;12.30;99.90
2729;DHT22;1372;47.956;7.830;2022-09-17T08:05:51;12.30;99.90
2729;DHT22;1372;47.956;7.830;2022-09-17T08:08:23;12.40;99.90
2729;DHT22;1372;47.956;7.830;2022-09-17T08:10:52;12.40;99.90
2729;DHT22;1372;47.956;7.830;2022-09-17T08:13:21;12.40;99.90
2729;DHT22;1372;47.956;7.830;2022-09-17T08:15:50;12.40;99.90
2729;DHT22;1372;47.956;7.830;2022-09-17T08:18:20;12.50;99.90
2729;DHT22;1372;47.956;7.830;2022-09-17T08:20:49;12.40;99.90
2729;DHT22;1372;47.956;7.830;2022-09-17T08:23:18;12.30;99.90
2729;DHT22;1372;47.956;7.830;2022-09-17T08:25:51;12.30;99.90
2729;DHT22;1372;47.956;7.830;2022-09-17T08:28:21;12.20;99.90
2729;DHT22;1372;47.956;7.830;2022-09-17T08:30:52;12.20;99.90
2729;DHT22;1372;47.956;7.830;2022-09-17T08:33:23;12.10;99.90
2729;DHT22;1372;47.956;7.830;2022-09-17T08:35:52;12.10;99.90
2729;DHT22;1372;47.956;7.830;2022-09-17T08:38:45;12.20;99.90
2729;DHT22;1372;47.956;7.830;2022-09-17T08:41:22;12.20;99.90
2729;DHT22;1372;47.956;7.830;2022-09-17T08:44:20;12.30;99.90
2729;DHT22;1372;47.956;7.830;2022-09-17T08:46:57;12.40;99.90
2729;DHT22;1372;47.956;7.830;2022-09-17T08:49:34;12.40;99.90
2729;DHT22;1372;47.956;7.830;2022-09-17T08:55:36;12.30;99.90
2729;DHT22;1372;47.956;7.830;2022-09-17T08:58:30;12.40;99.90
2729;DHT22;1372;47.956;7.830;2022-09-17T09:01:32;12.50;99.90
2729;DHT22;1372;47.956;7.830;2022-09-17T09:04:43;12.70;99.90
2729;DHT22;1372;47.956;7.830;2022-09-17T09:07:33;12.70;99.90
2729;DHT22;1372;47.956;7.830;2022-09-17T09:10:12;12.70;99.90
2729;DHT22;1372;47.956;7.830;2022-09-17T09:12:48;12.60;99.90
2729;DHT22;1372;47.956;7.830;2022-09-17T09:15:33;12.60;99.90
2729;DHT22;1372;47.956;7.830;2022-09-17T09:18:29;12.60;99.90
2729;DHT22;1372;47.956;7.830;2022-09-17T09:21:13;12.60;99.90
2729;DHT22;1372;47.956;7.830;2022-09-17T09:23:52;12.70;99.90
2729;DHT22;1372;47.956;7.830;2022-09-17T09:26:35;12.80;99.90
2729;DHT22;1372;47.956;7.830;2022-09-17T09:29:14;12.80;99.90
2729;DHT22;1372;47.956;7.830;2022-09-17T09:32:06;12.90;99.90
2729;DHT22;1372;47.956;7.830;2022-09-17T09:34:43;12.90;99.90
2729;DHT22;1372;47.956;7.830;2022-09-17T09:37:17;12.90;99.90
2729;DHT22;1372;47.956;7.830;2022-09-17T09:39:51;12.90;99.90
2729;DHT22;1372;47.956;7.830;2022-09-17T09:42:27;12.80;99.90
2729;DHT22;1372;47.956;7.830;2022-09-17T09:45:00;12.80;99.90
2729;DHT22;1372;47.956;7.830;2022-09-17T09:47:53;12.80;99.90
2729;DHT22;1372;47.956;7.830;2022-09-17T09:50:36;12.90;99.90
2729;DHT22;1372;47.956;7.830;2022-09-17T09:53:39;12.90;99.90
2729;DHT22;1372;47.956;7.830;2022-09-17T09:56:31;12.80;99.90
2729;DHT22;1372;47.956;7.830;2022-09-17T09:59:06;12.90;99.90
2729;DHT22;1372;47.956;7.830;2022-09-17T10:01:39;13.00;99.90
2729;DHT22;1372;47.956;7.830;2022-09-17T10:04:16;13.10;99.90
2729;DHT22;1372;47.956;7.830;2022-09-17T10:06:51;13.10;99.90
2729;DHT22;1372;47.956;7.830;2022-09-17T10:09:23;13.10;99.90
2729;DHT22;1372;47.956;7.830;2022-09-17T10:12:17;13.20;99.90
2729;DHT22;1372;47.956;7.830;2022-09-17T10:15:23;13.20;99.90
2729;DHT22;1372;47.956;7.830;2022-09-17T10:18:10;13.10;99.90
2729;DHT22;1372;47.956;7.830;2022-09-17T10:20:52;13.20;99.90
2729;DHT22;1372;47.956;7.830;2022-09-17T10:23:24;13.10;99.90
2729;DHT22;1372;47.956;7.830;2022-09-17T10:25:55;13.00;99.90
2729;DHT22;1372;47.956;7.830;2022-09-17T10:28:38;13.10;99.90
2729;DHT22;1372;47.956;7.830;2022-09-17T10:31:13;13.20;99.90
2729;DHT22;1372;47.956;7.830;2022-09-17T10:33:53;13.20;99.90
2729;DHT22;1372;47.956;7.830;2022-09-17T10:36:44;13.30;99.90
2729;DHT22;1372;47.956;7.830;2022-09-17T10:39:31;13.50;99.90
2729;DHT22;1372;47.956;7.830;2022-09-17T10:42:12;13.70;99.90
2729;DHT22;1372;47.956;7.830;2022-09-17T10:44:50;13.80;99.90
2729;DHT22;1372;47.956;7.830;2022-09-17T10:47:23;13.70;99.90
2729;DHT22;1372;47.956;7.830;2022-09-17T10:49:57;13.60;99.90
2729;DHT22;1372;47.956;7.830;2022-09-17T10:52:30;13.70;99.90
2729;DHT22;1372;47.956;7.830;2022-09-17T10:55:25;13.70;99.90
2729;DHT22;1372;47.956;7.830;2022-09-17T10:58:11;13.70;99.90
2729;DHT22;1372;47.956;7.830;2022-09-17T11:01:02;13.70;99.90
2729;DHT22;1372;47.956;7.830;2022-09-17T11:06:52;13.70;99.90
2729;DHT22;1372;47.956;7.830;2022-09-17T11:09:40;13.90;99.90
2729;DHT22;1372;47.956;7.830;2022-09-17T11:12:30;14.00;99.90
2729;DHT22;1372;47.956;7.830;2022-09-17T11:15:27;14.00;99.90
2729;DHT22;1372;47.956;7.830;2022-09-17T11:18:34;13.90;99.90
2729;DHT22;1372;47.956;7.830;2022-09-17T11:21:39;13.80;99.90
2729;DHT22;1372;47.956;7.830;2022-09-17T11:24:41;13.70;99.90
2729;DHT22;1372;47.956;7.830;2022-09-17T11:27:40;13.80;99.90
2729;DHT22;1372;47.956;7.830;2022-09-17T11:30:17;13.70;99.90
2729;DHT22;1372;47.956;7.830;2022-09-17T11:33:08;13.70;99.90
2729;DHT22;1372;47.956;7.830;2022-09-17T11:35:46;13.70;99.90
2729;DHT22;1372;47.956;7.830;2022-09-17T11:38:20;13.70;99.90
2729;DHT22;1372;47.956;7.830;2022-09-17T11:40:59;13.70;99.90
2729;DHT22;1372;47.956;7.830;2022-09-17T11:43:33;13.70;99.90
2729;DHT22;1372;47.956;7.830;2022-09-17T11:46:07;13.80;99.90
2729;DHT22;1372;47.956;7.830;2022-09-17T11:49:02;13.90;99.90
2729;DHT22;1372;47.956;7.830;2022-09-17T11:51:36;13.90;99.90
2729;DHT22;1372;47.956;7.830;2022-09-17T11:54:18;13.90;99.90
2729;DHT22;1372;47.956;7.830;2022-09-17T11:57:11;14.00;99.90
2729;DHT22;1372;47.956;7.830;2022-09-17T11:59:45;14.00;99.90
2729;DHT22;1372;47.956;7.830;2022-09-17T12:02:45;14.00;99.90
2729;DHT22;1372;47.956;7.830;2022-09-17T12:05:19;14.20;99.90
2729;DHT22;1372;47.956;7.830;2022-09-17T12:07:54;14.30;99.90
2729;DHT22;1372;47.956;7.830;2022-09-17T12:10:41;14.50;99.90
2729;DHT22;1372;47.956;7.830;2022-09-17T12:13:19;14.70;99.90
2729;DHT22;1372;47.956;7.830;2022-09-17T12:16:03;14.70;99.90
2729;DHT22;1372;47.956;7.830;2022-09-17T12:18:50;14.50;99.90
2729;DHT22;1372;47.956;7.830;2022-09-17T12:21:28;14.50;99.90
2729;DHT22;1372;47.956;7.830;2022-09-17T12:24:02;14.40;99.90
2729;DHT22;1372;47.956;7.830;2022-09-17T12:26:52;14.60;99.90
2729;DHT22;1372;47.956;7.830;2022-09-17T12:33:05;14.30;99.90
2729;DHT22;1372;47.956;7.830;2022-09-17T12:36:12;14.40;99.90
2729;DHT22;1372;47.956;7.830;2022-09-17T12:42:51;14.60;99.90
2729;DHT22;1372;47.956;7.830;2022-09-17T12:45:33;14.60;99.90
2729;DHT22;1372;47.956;7.830;2022-09-17T12:51:53;14.70;99.90
2729;DHT22;1372;47.956;7.830;2022-09-17T12:54:38;14.80;99.90
2729;DHT22;1372;47.956;7.830;2022-09-17T12:57:45;14.90;99.90
2729;DHT22;1372;47.956;7.830;2022-09-17T13:00:24;15.00;99.90
2729;DHT22;1372;47.956;7.830;2022-09-17T13:02:59;15.10;99.90
2729;DHT22;1372;47.956;7.830;2022-09-17T13:12:48;15.30;99.90
2729;DHT22;1372;47.956;7.830;2022-09-17T13:15:44;15.40;99.90
2729;DHT22;1372;47.956;7.830;2022-09-17T13:18:24;15.50;99.90
2729;DHT22;1372;47.956;7.830;2022-09-17T13:21:02;15.60;99.90
2729;DHT22;1372;47.956;7.830;2022-09-17T13:23:39;15.60;99.90
2729;DHT22;1372;47.956;7.830;2022-09-17T13:26:18;15.70;99.90
2729;DHT22;1372;47.956;7.830;2022-09-17T13:28:51;15.70;99.90
2729;DHT22;1372;47.956;7.830;2022-09-17T13:31:22;15.80;99.90
2729;DHT22;1372;47.956;7.830;2022-09-17T13:34:37;15.80;99.90
2729;DHT22;1372;47.956;7.830;2022-09-17T13:37:17;16.00;99.90
2729;DHT22;1372;47.956;7.830;2022-09-17T13:40:19;16.20;99.90
2729;DHT22;1372;47.956;7.830;2022-09-17T13:43:12;16.00;99.90
2729;DHT22;1372;47.956;7.830;2022-09-17T13:46:05;15.90;99.90
2729;DHT22;1372;47.956;7.830;2022-09-17T13:48:45;15.90;99.90
2729;DHT22;1372;47.956;7.830;2022-09-17T13:54:35;15.70;99.90
2729;DHT22;1372;47.956;7.830;2022-09-17T13:57:11;15.80;99.90
2729;DHT22;1372;47.956;7.830;2022-09-17T13:59:57;16.00;99.90
2729;DHT22;1372;47.956;7.830;2022-09-17T14:02:34;16.20;99.90
2729;DHT22;1372;47.956;7.830;2022-09-17T14:05:33;16.20;99.90
2729;DHT22;1372;47.956;7.830;2022-09-17T14:11:00;15.90;99.90
2729;DHT22;1372;47.956;7.830;2022-09-17T14:13:41;15.70;99.90
2729;DHT22;1372;47.956;7.830;2022-09-17T14:16:32;15.50;99.90
2729;DHT22;1372;47.956;7.830;2022-09-17T14:19:26;15.30;99.90
2729;DHT22;1372;47.956;7.830;2022-09-17T14:22:10;15.20;99.90
2729;DHT22;1372;47.956;7.830;2022-09-17T14:25:13;15.10;99.90
2729;DHT22;1372;47.956;7.830;2022-09-17T14:27:51;15.10;99.90
2729;DHT22;1372;47.956;7.830;2022-09-17T14:30:41;15.00;99.90
2729;DHT22;1372;47.956;7.830;2022-09-17T14:33:15;15.00;99.90
2729;DHT22;1372;47.956;7.830;2022-09-17T14:35:46;14.90;99.90
2729;DHT22;1372;47.956;7.830;2022-09-17T14:38:20;15.00;99.90
2729;DHT22;1372;47.956;7.830;2022-09-17T14:40:57;15.00;99.90
2729;DHT22;1372;47.956;7.830;2022-09-17T14:43:39;14.90;99.90
2729;DHT22;1372;47.956;7.830;2022-09-17T14:46:16;14.90;99.90
2729;DHT22;1372;47.956;7.830;2022-09-17T14:48:49;14.90;99.90
2729;DHT22;1372;47.956;7.830;2022-09-17T14:51:27;14.80;99.90
2729;DHT22;1372;47.956;7.830;2022-09-17T14:54:19;14.80;99.90
2729;DHT22;1372;47.956;7.830;2022-09-17T14:56:57;14.90;99.90
2729;DHT22;1372;47.956;7.830;2022-09-17T14:59:40;14.90;99.90
2729;DHT22;1372;47.956;7.830;2022-09-17T15:02:28;14.80;99.90
2729;DHT22;1372;47.956;7.830;2022-09-17T15:05:15;14.80;99.90
2729;DHT22;1372;47.956;7.830;2022-09-17T15:08:11;14.80;99.90
2729;DHT22;1372;47.956;7.830;2022-09-17T15:10:47;14.80;99.90
2729;DHT22;1372;47.956;7.830;2022-09-17T15:13:19;15.00;99.90
2729;DHT22;1372;47.956;7.830;2022-09-17T15:15:52;15.00;99.90
2729;DHT22;1372;47.956;7.830;2022-09-17T15:18:47;15.00;99.90
2729;DHT22;1372;47.956;7.830;2022-09-17T15:21:29;14.90;99.90
2729;DHT22;1372;47.956;7.830;2022-09-17T15:24:11;15.40;99.90
2729;DHT22;1372;47.956;7.830;2022-09-17T15:26:44;15.60;99.90
2729;DHT22;1372;47.956;7.830;2022-09-17T15:29:18;15.60;99.90
2729;DHT22;1372;47.956;7.830;2022-09-17T15:32:11;15.60;99.90
2729;DHT22;1372;47.956;7.830;2022-09-17T15:34:43;15.60;99.90
2729;DHT22;1372;47.956;7.830;2022-09-17T15:37:18;15.80;99.90
2729;DHT22;1372;47.956;7.830;2022-09-17T15:39:49;15.80;99.90
2729;DHT22;1372;47.956;7.830;2022-09-17T15:42:22;15.80;99.90
2729;DHT22;1372;47.956;7.830;2022-09-17T15:45:06;15.70;99.90
2729;DHT22;1372;47.956;7.830;2022-09-17T15:47:50;15.50;99.90
2729;DHT22;1372;47.956;7.830;2022-09-17T15:50:24;15.40;99.90
2729;DHT22;1372;47.956;7.830;2022-09-17T15:53:11;15.30;99.90
2729;DHT22;1372;47.956;7.830;2022-09-17T15:55:42;15.20;99.90
2729;DHT22;1372;47.956;7.830;2022-09-17T15:58:22;15.00;99.90
2729;DHT22;1372;47.956;7.830;2022-09-17T16:04:27;14.70;99.90
2729;DHT22;1372;47.956;7.830;2022-09-17T16:07:15;14.70;99.90
2729;DHT22;1372;47.956;7.830;2022-09-17T16:10:13;14.80;99.90
2729;DHT22;1372;47.956;7.830;2022-09-17T16:12:42;14.80;99.90
2729;DHT22;1372;47.956;7.830;2022-09-17T16:15:12;14.60;99.90
2729;DHT22;1372;47.956;7.830;2022-09-17T16:18:00;14.50;99.90
2729;DHT22;1372;47.956;7.830;2022-09-17T16:20:31;14.40;99.90
2729;DHT22;1372;47.956;7.830;2022-09-17T16:23:05;14.30;99.90
2729;DHT22;1372;47.956;7.830;2022-09-17T16:25:37;14.30;99.90
2729;DHT22;1372;47.956;7.830;2022-09-17T16:28:10;14.50;99.90
2729;DHT22;1372;47.956;7.830;2022-09-17T16:30:43;14.50;99.90
2729;DHT22;1372;47.956;7.830;2022-09-17T16:33:15;14.30;99.90
2729;DHT22;1372;47.956;7.830;2022-09-17T16:35:44;14.20;99.90
2729;DHT22;1372;47.956;7.830;2022-09-17T16:38:15;14.10;99.90
2729;DHT22;1372;47.956;7.830;2022-09-17T16:40:47;14.20;99.90
2729;DHT22;1372;47.956;7.830;2022-09-17T16:43:18;14.20;99.90
2729;DHT22;1372;47.956;7.830;2022-09-17T16:45:57;14.20;99.90
2729;DHT22;1372;47.956;7.830;2022-09-17T16:48:26;14.20;99.90
2729;DHT22;1372;47.956;7.830;2022-09-17T16:51:14;14.20;99.90
2729;DHT22;1372;47.956;7.830;2022-09-17T16:53:43;14.20;99.90
2729;DHT22;1372;47.956;7.830;2022-09-17T16:56:33;14.20;99.90
2729;DHT22;1372;47.956;7.830;2022-09-17T16:59:02;14.20;99.90
2729;DHT22;1372;47.956;7.830;2022-09-17T17:01:31;14.20;99.90
2729;DHT22;1372;47.956;7.830;2022-09-17T17:04:00;14.10;99.90
2729;DHT22;1372;47.956;7.830;2022-09-17T17:06:32;14.10;99.90
2729;DHT22;1372;47.956;7.830;2022-09-17T17:09:03;14.00;99.90
2729;DHT22;1372;47.956;7.830;2022-09-17T17:11:36;14.10;99.90
2729;DHT22;1372;47.956;7.830;2022-09-17T17:14:06;14.00;99.90
2729;DHT22;1372;47.956;7.830;2022-09-17T17:16:40;13.90;99.90
2729;DHT22;1372;47.956;7.830;2022-09-17T17:19:10;13.80;99.90
2729;DHT22;1372;47.956;7.830;2022-09-17T17:21:58;13.80;99.90
2729;DHT22;1372;47.956;7.830;2022-09-17T17:24:27;13.70;99.90
2729;DHT22;1372;47.956;7.830;2022-09-17T17:27:00;13.60;99.90
2729;DHT22;1372;47.956;7.830;2022-09-17T17:29:32;13.50;99.90
2729;DHT22;1372;47.956;7.830;2022-09-17T17:32:01;13.30;99.90
2729;DHT22;1372;47.956;7.830;2022-09-17T17:34:31;13.20;99.90
2729;DHT22;1372;47.956;7.830;2022-09-17T17:37:00;13.10;99.90
2729;DHT22;1372;47.956;7.830;2022-09-17T17:39:29;13.20;99.90
2729;DHT22;1372;47.956;7.830;2022-09-17T17:42:00;13.10;99.90
2729;DHT22;1372;47.956;7.830;2022-09-17T17:44:32;13.00;99.90
2729;DHT22;1372;47.956;7.830;2022-09-17T17:47:00;12.90;99.90
2729;DHT22;1372;47.956;7.830;2022-09-17T17:49:32;12.90;99.90